Time;durP1;ratioP1;P1;durP2;ratioP2;P2;SDS_P1;SDS_P2;PMS_P1;PMS_P2;Temp;Humidity;BMP_temperature;BMP_pressure;BME280_temperature;BME280_humidity;BME280_pressure;Samples;Min_cycle;Max_cycle;Signal;HPM_P1;HPM_P2
2021/11/23 00:00:18;;;;;;;8.82;4.10;;;;;;;;;;5030196;28;20072;-66
2021/11/23 00:02:45;;;;;;;7.78;4.07;;;;;;;;;;5034957;28;20060;-67
2021/11/23 00:05:13;;;;;;;8.52;5.03;;;;;;;;;;5029322;28;20147;-67
2021/11/23 00:07:41;;;;;;;8.27;4.38;;;;;;;;;;5032494;28;20103;-67
2021/11/23 00:10:08;;;;;;;7.30;4.07;;;;;;;;;;5026739;28;20691;-67
2021/11/23 00:12:35;;;;;;;7.97;4.15;;;;;;;;;;5033447;28;20073;-67
2021/11/23 00:15:02;;;;;;;7.97;4.15;;;;;;;;;;5033365;28;20053;-67
2021/11/23 00:17:29;;;;;;;7.40;3.92;;;;;;;;;;5029517;28;20057;-67
2021/11/23 00:19:55;;;;;;;8.98;4.80;;;;;;;;;;5024142;28;20073;-67
2021/11/23 00:22:22;;;;;;;7.88;4.03;;;;;;;;;;5029390;28;20053;-66
2021/11/23 00:24:50;;;;;;;8.07;4.70;;;;;;;;;;5033434;28;20057;-67
2021/11/23 00:27:16;;;;;;;8.82;4.20;;;;;;;;;;5030932;28;20084;-67
2021/11/23 00:29:43;;;;;;;8.02;4.75;;;;;;;;;;5028161;28;20077;-67
2021/11/23 00:32:10;;;;;;;7.55;4.10;;;;;;;;;;5033338;28;20769;-67
2021/11/23 00:34:36;;;;;;;8.50;4.03;;;;;;;;;;5032753;28;20436;-67
2021/11/23 00:37:03;;;;;;;7.43;4.60;;;;;;;;;;5033171;28;20119;-67
2021/11/23 00:39:29;;;;;;;7.65;4.57;;;;;;;;;;5031619;28;20085;-67
2021/11/23 00:41:57;;;;;;;7.68;4.55;;;;;;;;;;5031617;28;20523;-67
2021/11/23 00:44:24;;;;;;;9.25;4.93;;;;;;;;;;5033440;28;20081;-67
2021/11/23 00:46:50;;;;;;;8.27;5.07;;;;;;;;;;5034128;28;20123;-67
2021/11/23 00:49:17;;;;;;;9.07;4.57;;;;;;;;;;5031115;28;20103;-67
2021/11/23 00:51:44;;;;;;;6.95;4.13;;;;;;;;;;5035723;28;20115;-67
2021/11/23 00:54:11;;;;;;;7.00;4.47;;;;;;;;;;5033982;28;20088;-67
2021/11/23 00:56:38;;;;;;;7.05;4.35;;;;;;;;;;5033907;28;20740;-66
2021/11/23 00:59:06;;;;;;;10.23;4.45;;;;;;;;;;5033131;28;20894;-67
2021/11/23 01:01:33;;;;;;;8.25;3.97;;;;;;;;;;5033957;28;20068;-67
2021/11/23 01:03:59;;;;;;;7.45;4.60;;;;;;;;;;5034767;28;20699;-67
2021/11/23 01:06:26;;;;;;;7.03;4.15;;;;;;;;;;5033040;28;20037;-67
2021/11/23 01:08:52;;;;;;;8.52;4.25;;;;;;;;;;5029213;28;20076;-66
2021/11/23 01:11:20;;;;;;;7.32;4.43;;;;;;;;;;5032454;28;20057;-67
2021/11/23 01:13:48;;;;;;;8.55;4.18;;;;;;;;;;5036211;28;20808;-67
2021/11/23 01:16:17;;;;;;;7.22;4.20;;;;;;;;;;5035695;28;20064;-66
2021/11/23 01:18:43;;;;;;;5.97;3.83;;;;;;;;;;5034258;28;20077;-67
2021/11/23 01:21:12;;;;;;;8.10;4.22;;;;;;;;;;5031768;28;20486;-67
2021/11/23 01:23:39;;;;;;;8.38;4.18;;;;;;;;;;5035230;28;20099;-67
2021/11/23 01:26:06;;;;;;;7.40;3.97;;;;;;;;;;5031708;28;20507;-67
2021/11/23 01:28:32;;;;;;;8.88;4.65;;;;;;;;;;5032650;28;20081;-67
2021/11/23 01:31:00;;;;;;;8.20;4.53;;;;;;;;;;5033453;28;20131;-67
2021/11/23 01:33:28;;;;;;;8.20;4.15;;;;;;;;;;5031623;28;20053;-66
2021/11/23 01:35:55;;;;;;;5.55;3.47;;;;;;;;;;5032285;28;20061;-67
2021/11/23 01:38:21;;;;;;;7.38;3.97;;;;;;;;;;5032354;28;20750;-67
2021/11/23 01:40:48;;;;;;;9.63;4.85;;;;;;;;;;5030582;28;20077;-67
2021/11/23 01:43:14;;;;;;;6.30;3.75;;;;;;;;;;5031973;28;20053;-67
2021/11/23 01:45:41;;;;;;;7.20;4.15;;;;;;;;;;5035044;28;20073;-67
2021/11/23 01:48:09;;;;;;;7.00;4.45;;;;;;;;;;5030146;28;20071;-67
2021/11/23 01:50:37;;;;;;;7.38;4.05;;;;;;;;;;5030073;28;20113;-67
2021/11/23 01:53:06;;;;;;;6.85;3.80;;;;;;;;;;5030351;28;20060;-67
2021/11/23 01:55:35;;;;;;;7.18;4.85;;;;;;;;;;5031206;28;20041;-68
2021/11/23 01:58:02;;;;;;;8.23;4.18;;;;;;;;;;5030578;28;20502;-70
2021/11/23 02:00:28;;;;;;;8.13;4.90;;;;;;;;;;5031013;28;20045;-67
2021/11/23 02:02:55;;;;;;;6.50;4.00;;;;;;;;;;5031323;28;20065;-67
2021/11/23 02:05:21;;;;;;;7.75;4.28;;;;;;;;;;5032254;28;20084;-67
2021/11/23 02:07:49;;;;;;;7.43;3.95;;;;;;;;;;5032217;28;20666;-67
2021/11/23 02:10:16;;;;;;;8.07;3.92;;;;;;;;;;5028069;28;20080;-67
2021/11/23 02:12:42;;;;;;;6.95;4.18;;;;;;;;;;5032944;28;20138;-67
2021/11/23 02:15:10;;;;;;;6.05;3.53;;;;;;;;;;5030835;28;20103;-67
2021/11/23 02:17:37;;;;;;;7.93;3.85;;;;;;;;;;5030368;28;20823;-67
2021/11/23 02:20:08;;;;;;;7.72;4.32;;;;;;;;;;5027469;28;20139;-67
2021/11/23 02:22:35;;;;;;;10.30;4.72;;;;;;;;;;5027405;28;20138;-67
2021/11/23 02:25:01;;;;;;;6.88;3.80;;;;;;;;;;5029481;28;20138;-67
2021/11/23 02:27:28;;;;;;;7.75;3.72;;;;;;;;;;5032414;28;20067;-67
2021/11/23 02:29:54;;;;;;;6.35;3.65;;;;;;;;;;5029364;28;20076;-66
2021/11/23 02:32:21;;;;;;;6.13;3.90;;;;;;;;;;5035290;28;20158;-67
2021/11/23 02:34:48;;;;;;;9.65;4.43;;;;;;;;;;5033645;28;20049;-66
2021/11/23 02:37:16;;;;;;;7.00;3.45;;;;;;;;;;5032442;28;20181;-67
2021/11/23 02:39:42;;;;;;;7.22;4.03;;;;;;;;;;5026710;28;20053;-67
2021/11/23 02:42:09;;;;;;;8.68;3.95;;;;;;;;;;5030386;28;20140;-67
2021/11/23 02:44:42;;;;;;;10.02;4.72;;;;;;;;;;5030921;28;20069;-67
2021/11/23 02:47:08;;;;;;;8.25;4.47;;;;;;;;;;5029901;28;20080;-67
2021/11/23 02:49:35;;;;;;;6.18;4.07;;;;;;;;;;5027278;28;20149;-67
2021/11/23 02:52:02;;;;;;;7.97;3.70;;;;;;;;;;5027184;28;20727;-67
2021/11/23 02:54:30;;;;;;;6.53;3.63;;;;;;;;;;5032716;28;20053;-67
2021/11/23 02:56:56;;;;;;;8.55;3.95;;;;;;;;;;5029629;28;20069;-67
2021/11/23 02:59:23;;;;;;;8.05;4.03;;;;;;;;;;5027708;28;20173;-67
2021/11/23 03:01:49;;;;;;;8.43;4.13;;;;;;;;;;5032137;28;20091;-67
2021/11/23 03:04:17;;;;;;;7.53;3.97;;;;;;;;;;5030060;28;20110;-67
2021/11/23 03:06:45;;;;;;;7.85;4.30;;;;;;;;;;5031251;28;20053;-67
2021/11/23 03:09:12;;;;;;;7.22;4.03;;;;;;;;;;5028254;28;20539;-67
2021/11/23 03:11:40;;;;;;;7.03;3.90;;;;;;;;;;5030558;28;20111;-67
2021/11/23 03:14:06;;;;;;;7.70;3.40;;;;;;;;;;5029618;28;20512;-67
2021/11/23 03:16:33;;;;;;;7.70;4.10;;;;;;;;;;5031070;28;20088;-68
2021/11/23 03:19:00;;;;;;;9.40;3.90;;;;;;;;;;5029807;28;20088;-67
2021/11/23 03:21:26;;;;;;;7.85;4.22;;;;;;;;;;5028686;28;20178;-67
2021/11/23 03:23:53;;;;;;;6.88;3.58;;;;;;;;;;5026913;28;20077;-67
2021/11/23 03:26:20;;;;;;;6.35;3.65;;;;;;;;;;5029766;28;20155;-67
2021/11/23 03:28:48;;;;;;;7.00;4.05;;;;;;;;;;5026528;28;20060;-67
2021/11/23 03:31:14;;;;;;;8.07;4.05;;;;;;;;;;5029470;28;20069;-67
2021/11/23 03:33:41;;;;;;;8.48;3.63;;;;;;;;;;5030079;28;20060;-67
2021/11/23 03:36:07;;;;;;;6.93;4.10;;;;;;;;;;5028529;28;20057;-67
2021/11/23 03:38:34;;;;;;;6.47;3.70;;;;;;;;;;5031086;28;20084;-67
2021/11/23 03:41:01;;;;;;;5.85;3.38;;;;;;;;;;5027860;28;20126;-67
2021/11/23 03:43:28;;;;;;;11.63;4.07;;;;;;;;;;5032957;28;20042;-67
2021/11/23 03:45:56;;;;;;;7.05;3.55;;;;;;;;;;5030313;28;20130;-67
2021/11/23 03:48:22;;;;;;;6.78;3.72;;;;;;;;;;5029328;28;20057;-67
2021/11/23 03:50:49;;;;;;;8.43;4.10;;;;;;;;;;5028577;28;20107;-67
2021/11/23 03:53:15;;;;;;;7.05;3.90;;;;;;;;;;5029469;28;20143;-67
2021/11/23 03:55:48;;;;;;;5.32;3.15;;;;;;;;;;5028082;28;20045;-67
2021/11/23 03:58:15;;;;;;;5.75;3.50;;;;;;;;;;5025667;28;20153;-67
2021/11/23 04:00:42;;;;;;;7.72;3.70;;;;;;;;;;5025013;28;20049;-67
2021/11/23 04:03:10;;;;;;;6.88;4.20;;;;;;;;;;5027882;28;21364;-67
2021/11/23 04:05:36;;;;;;;7.93;4.15;;;;;;;;;;5031002;28;20503;-67
2021/11/23 04:08:03;;;;;;;8.35;4.15;;;;;;;;;;5030621;28;20107;-67
2021/11/23 04:10:30;;;;;;;7.82;3.72;;;;;;;;;;5024033;28;20084;-67
2021/11/23 04:12:57;;;;;;;7.85;4.22;;;;;;;;;;5034099;28;20695;-67
2021/11/23 04:15:23;;;;;;;7.63;4.15;;;;;;;;;;5033190;28;20122;-67
2021/11/23 04:17:51;;;;;;;8.73;4.65;;;;;;;;;;5031942;28;20084;-67
2021/11/23 04:20:19;;;;;;;9.27;4.25;;;;;;;;;;5029235;28;20061;-67
2021/11/23 04:22:46;;;;;;;8.68;4.20;;;;;;;;;;5029183;28;20116;-67
2021/11/23 04:25:14;;;;;;;7.18;3.65;;;;;;;;;;5031888;28;20073;-67
2021/11/23 04:27:41;;;;;;;7.55;4.28;;;;;;;;;;5032295;28;20069;-67
2021/11/23 04:30:10;;;;;;;6.88;4.45;;;;;;;;;;5031127;28;20084;-67
2021/11/23 04:32:37;;;;;;;9.23;4.40;;;;;;;;;;5028550;28;20049;-67
2021/11/23 04:35:04;;;;;;;15.32;8.35;;;;;;;;;;5029315;28;20601;-67
2021/11/23 04:37:32;;;;;;;11.60;6.32;;;;;;;;;;5031814;28;20053;-67
2021/11/23 04:39:58;;;;;;;7.05;4.82;;;;;;;;;;5030609;28;20068;-67
2021/11/23 04:42:25;;;;;;;9.43;5.30;;;;;;;;;;5034260;28;20076;-67
2021/11/23 04:44:52;;;;;;;9.45;4.75;;;;;;;;;;5036180;28;20049;-67
2021/11/23 04:47:18;;;;;;;7.25;4.68;;;;;;;;;;5033399;28;20137;-67
2021/11/23 04:49:45;;;;;;;9.98;4.38;;;;;;;;;;5031334;28;20123;-67
2021/11/23 04:52:11;;;;;;;11.10;4.45;;;;;;;;;;5033864;28;20428;-67
2021/11/23 04:54:40;;;;;;;10.93;5.45;;;;;;;;;;5034279;28;20081;-67
2021/11/23 04:57:07;;;;;;;7.63;4.60;;;;;;;;;;5033104;28;20057;-67
2021/11/23 04:59:34;;;;;;;8.85;4.45;;;;;;;;;;5029843;28;20154;-67
2021/11/23 05:02:01;;;;;;;9.20;4.80;;;;;;;;;;5028579;28;20049;-67
2021/11/23 05:04:27;;;;;;;11.38;5.35;;;;;;;;;;5029947;28;20049;-67
2021/11/23 05:06:54;;;;;;;7.47;4.47;;;;;;;;;;5033642;28;20480;-67
2021/11/23 05:09:21;;;;;;;9.25;4.95;;;;;;;;;;5030230;28;20158;-67
2021/11/23 05:11:49;;;;;;;10.23;5.43;;;;;;;;;;5031029;28;20110;-67
2021/11/23 05:14:16;;;;;;;8.57;5.32;;;;;;;;;;5036874;28;20731;-68
2021/11/23 05:16:43;;;;;;;12.00;5.75;;;;;;;;;;5029942;28;20143;-67
2021/11/23 05:19:10;;;;;;;8.77;5.00;;;;;;;;;;5032345;28;20057;-67
2021/11/23 05:21:36;;;;;;;9.25;5.25;;;;;;;;;;5031615;28;20516;-67
2021/11/23 05:24:03;;;;;;;7.40;4.68;;;;;;;;;;5035614;28;20076;-67
2021/11/23 05:26:30;;;;;;;9.00;4.93;;;;;;;;;;5031852;28;20134;-67
2021/11/23 05:28:58;;;;;;;8.55;5.43;;;;;;;;;;5031631;28;20457;-67
2021/11/23 05:31:25;;;;;;;9.43;4.38;;;;;;;;;;5031564;28;20056;-67
2021/11/23 05:33:51;;;;;;;8.45;4.40;;;;;;;;;;5030949;28;20069;-67
2021/11/23 05:36:18;;;;;;;8.77;5.38;;;;;;;;;;5033168;28;20053;-68
2021/11/23 05:38:44;;;;;;;8.82;4.75;;;;;;;;;;5030688;28;20053;-67
2021/11/23 05:41:11;;;;;;;10.48;5.57;;;;;;;;;;5029184;28;20553;-67
2021/11/23 05:43:37;;;;;;;8.00;4.68;;;;;;;;;;5033508;28;20138;-67
2021/11/23 05:46:06;;;;;;;7.55;4.65;;;;;;;;;;5032916;28;20476;-67
2021/11/23 05:48:32;;;;;;;10.93;5.05;;;;;;;;;;5034585;28;20480;-68
2021/11/23 05:51:03;;;;;;;9.15;4.55;;;;;;;;;;5033784;28;20072;-67
2021/11/23 05:53:30;;;;;;;8.27;4.78;;;;;;;;;;5035011;28;20049;-67
2021/11/23 05:55:57;;;;;;;7.47;4.68;;;;;;;;;;5032432;28;20072;-67
2021/11/23 05:58:23;;;;;;;8.32;4.57;;;;;;;;;;5035718;28;20772;-67
2021/11/23 06:00:50;;;;;;;9.02;5.10;;;;;;;;;;5028156;28;20485;-67
2021/11/23 06:03:18;;;;;;;8.23;4.38;;;;;;;;;;5030673;28;20091;-67
2021/11/23 06:05:45;;;;;;;7.45;4.28;;;;;;;;;;5029807;28;20570;-67
2021/11/23 06:08:11;;;;;;;8.18;4.50;;;;;;;;;;5029068;28;20077;-67
2021/11/23 06:10:38;;;;;;;9.05;5.13;;;;;;;;;;5029518;28;20102;-67
2021/11/23 06:13:05;;;;;;;8.15;4.80;;;;;;;;;;5030124;28;20126;-67
2021/11/23 06:15:32;;;;;;;10.32;5.15;;;;;;;;;;5035243;28;20143;-67
2021/11/23 06:18:01;;;;;;;7.43;4.22;;;;;;;;;;5033685;28;20073;-67
2021/11/23 06:20:29;;;;;;;9.88;4.85;;;;;;;;;;5032326;28;20053;-67
2021/11/23 06:22:56;;;;;;;8.18;4.72;;;;;;;;;;5033381;28;20133;-68
2021/11/23 06:25:22;;;;;;;8.95;5.00;;;;;;;;;;5031971;28;20550;-68
2021/11/23 06:27:49;;;;;;;9.93;4.72;;;;;;;;;;5034466;28;20068;-67
2021/11/23 06:30:16;;;;;;;11.80;5.80;;;;;;;;;;5030496;28;20076;-67
2021/11/23 06:32:43;;;;;;;7.75;4.32;;;;;;;;;;5031748;28;20492;-67
2021/11/23 06:35:10;;;;;;;9.60;4.80;;;;;;;;;;5036300;28;20498;-67
2021/11/23 06:37:38;;;;;;;13.32;5.00;;;;;;;;;;5035093;28;20137;-67
2021/11/23 06:40:06;;;;;;;6.45;4.13;;;;;;;;;;5029532;28;20084;-67
2021/11/23 06:42:33;;;;;;;10.30;5.30;;;;;;;;;;5030955;28;20111;-68
2021/11/23 06:44:59;;;;;;;9.40;6.00;;;;;;;;;;5033654;28;20517;-68
2021/11/23 06:47:26;;;;;;;10.98;5.97;;;;;;;;;;5033980;28;20131;-68
2021/11/23 06:49:53;;;;;;;12.10;5.60;;;;;;;;;;5033192;28;20139;-67
2021/11/23 06:52:22;;;;;;;10.48;5.85;;;;;;;;;;5033171;28;20091;-67
2021/11/23 06:54:50;;;;;;;9.73;5.60;;;;;;;;;;5033142;28;20601;-68
2021/11/23 06:57:17;;;;;;;8.60;4.93;;;;;;;;;;5030767;28;20083;-67
2021/11/23 06:59:45;;;;;;;7.55;4.82;;;;;;;;;;5034076;28;20041;-67
2021/11/23 07:02:12;;;;;;;11.40;5.35;;;;;;;;;;5035951;28;20049;-67
2021/11/23 07:04:39;;;;;;;8.50;5.05;;;;;;;;;;5032666;28;20049;-68
2021/11/23 07:07:06;;;;;;;8.90;5.10;;;;;;;;;;5034308;28;20126;-68
2021/11/23 07:09:32;;;;;;;8.85;5.47;;;;;;;;;;5030265;28;20052;-68
2021/11/23 07:12:00;;;;;;;10.38;5.35;;;;;;;;;;5034556;28;20073;-67
2021/11/23 07:14:27;;;;;;;8.70;4.78;;;;;;;;;;5037607;28;20049;-67
2021/11/23 07:16:53;;;;;;;12.82;6.50;;;;;;;;;;5034243;28;20114;-67
2021/11/23 07:19:21;;;;;;;7.75;4.32;;;;;;;;;;5029306;28;20073;-67
2021/11/23 07:21:47;;;;;;;9.23;5.80;;;;;;;;;;5034595;28;20664;-67
2021/11/23 07:24:14;;;;;;;8.27;4.53;;;;;;;;;;5032335;28;20077;-68
2021/11/23 07:26:41;;;;;;;9.68;4.85;;;;;;;;;;5030003;28;20053;-68
2021/11/23 07:29:09;;;;;;;8.68;5.45;;;;;;;;;;5030970;28;20527;-68
2021/11/23 07:31:37;;;;;;;7.82;5.38;;;;;;;;;;5031774;28;20110;-67
2021/11/23 07:34:04;;;;;;;9.70;5.72;;;;;;;;;;5036371;28;20690;-67
2021/11/23 07:36:31;;;;;;;11.65;6.03;;;;;;;;;;5030203;28;20053;-67
2021/11/23 07:39:00;;;;;;;10.00;5.60;;;;;;;;;;5033591;28;20115;-67
2021/11/23 07:41:27;;;;;;;10.95;6.15;;;;;;;;;;5030931;28;20071;-68
2021/11/23 07:43:53;;;;;;;10.35;6.25;;;;;;;;;;5034746;28;20068;-68
2021/11/23 07:46:22;;;;;;;12.05;6.32;;;;;;;;;;5032313;28;20069;-68
2021/11/23 07:48:49;;;;;;;10.65;5.68;;;;;;;;;;5032738;28;20084;-68
2021/11/23 07:51:15;;;;;;;9.63;5.82;;;;;;;;;;5033364;28;20085;-67
2021/11/23 07:53:42;;;;;;;11.40;5.75;;;;;;;;;;5033927;28;20466;-67
2021/11/23 07:56:09;;;;;;;9.93;5.63;;;;;;;;;;5037632;28;20459;-67
2021/11/23 07:58:35;;;;;;;10.98;5.55;;;;;;;;;;5032969;28;21346;-67
2021/11/23 08:01:03;;;;;;;11.63;6.30;;;;;;;;;;5031971;28;20084;-69
2021/11/23 08:03:31;;;;;;;11.32;6.28;;;;;;;;;;5040606;28;20050;-67
2021/11/23 08:05:57;;;;;;;16.63;7.65;;;;;;;;;;5042203;28;20045;-68
2021/11/23 08:08:24;;;;;;;12.65;7.95;;;;;;;;;;5037865;28;20118;-67
2021/11/23 08:10:51;;;;;;;12.20;6.65;;;;;;;;;;5037241;28;20061;-67
2021/11/23 08:13:18;;;;;;;8.43;5.63;;;;;;;;;;5037943;28;21483;-67
2021/11/23 08:15:44;;;;;;;12.25;5.25;;;;;;;;;;5039289;28;20040;-69
2021/11/23 08:18:11;;;;;;;10.77;5.95;;;;;;;;;;5036344;28;20049;-67
2021/11/23 08:20:39;;;;;;;12.63;6.15;;;;;;;;;;5034827;28;20049;-67
2021/11/23 08:23:06;;;;;;;9.32;5.25;;;;;;;;;;5038705;28;20053;-67
2021/11/23 08:25:33;;;;;;;10.27;6.05;;;;;;;;;;5037829;28;20053;-67
2021/11/23 08:28:00;;;;;;;9.18;5.70;;;;;;;;;;5034277;28;20159;-67
2021/11/23 08:30:26;;;;;;;8.82;5.45;;;;;;;;;;5034789;28;20124;-67
2021/11/23 08:32:53;;;;;;;8.70;5.40;;;;;;;;;;5038276;28;20575;-67
2021/11/23 08:35:20;;;;;;;11.50;6.47;;;;;;;;;;5039671;28;20142;-67
2021/11/23 08:37:48;;;;;;;49.22;9.80;;;;;;;;;;5040844;28;20525;-67
2021/11/23 08:40:14;;;;;;;10.75;6.15;;;;;;;;;;5036178;28;20495;-67
2021/11/23 08:42:42;;;;;;;14.13;5.93;;;;;;;;;;5035824;28;20551;-67
2021/11/23 08:45:10;;;;;;;11.10;6.32;;;;;;;;;;5039769;28;20138;-68
2021/11/23 08:47:37;;;;;;;9.70;6.07;;;;;;;;;;5039152;28;20102;-68
2021/11/23 08:50:05;;;;;;;12.32;6.32;;;;;;;;;;5036911;28;20076;-67
2021/11/23 08:52:32;;;;;;;9.77;5.65;;;;;;;;;;5039596;28;20607;-67
2021/11/23 08:55:00;;;;;;;12.15;5.88;;;;;;;;;;5037416;28;20087;-67
2021/11/23 08:57:27;;;;;;;10.93;6.82;;;;;;;;;;5038021;28;20156;-67
2021/11/23 09:00:08;;;;;;;14.00;7.20;;;;;;;;;;5037253;28;20073;-67
2021/11/23 09:02:34;;;;;;;9.23;6.03;;;;;;;;;;5035192;28;20052;-67
2021/11/23 09:05:01;;;;;;;12.50;5.97;;;;;;;;;;5039980;28;20041;-67
2021/11/23 09:07:28;;;;;;;11.27;6.90;;;;;;;;;;5038453;28;20513;-67
2021/11/23 09:09:54;;;;;;;12.32;6.20;;;;;;;;;;5033942;28;20119;-67
2021/11/23 09:12:22;;;;;;;9.52;5.88;;;;;;;;;;5036944;28;20098;-67
2021/11/23 09:14:49;;;;;;;9.50;6.05;;;;;;;;;;5040768;28;20060;-67
2021/11/23 09:17:16;;;;;;;9.32;5.95;;;;;;;;;;5038720;28;20409;-67
2021/11/23 09:19:42;;;;;;;9.45;5.47;;;;;;;;;;5035305;28;20103;-67
2021/11/23 09:22:09;;;;;;;9.90;6.65;;;;;;;;;;5038395;28;20085;-67
2021/11/23 09:24:36;;;;;;;10.43;6.15;;;;;;;;;;5034652;28;20041;-67
2021/11/23 09:27:03;;;;;;;10.85;5.28;;;;;;;;;;5038063;28;20172;-67
2021/11/23 09:29:31;;;;;;;12.65;6.20;;;;;;;;;;5033088;28;20159;-67
2021/11/23 09:31:58;;;;;;;10.43;5.95;;;;;;;;;;5036574;28;20076;-67
2021/11/23 09:34:26;;;;;;;9.95;5.93;;;;;;;;;;5037200;28;20315;-67
2021/11/23 09:36:54;;;;;;;12.98;6.57;;;;;;;;;;5036491;28;20052;-67
2021/11/23 09:39:21;;;;;;;10.32;6.28;;;;;;;;;;5035986;28;21187;-67
2021/11/23 09:41:48;;;;;;;10.27;6.10;;;;;;;;;;5036477;28;20059;-67
2021/11/23 09:44:14;;;;;;;7.88;5.45;;;;;;;;;;5036232;28;20098;-67
2021/11/23 09:46:42;;;;;;;12.77;6.55;;;;;;;;;;5039885;28;20613;-67
2021/11/23 09:49:09;;;;;;;14.77;6.93;;;;;;;;;;5035039;28;20057;-67
2021/11/23 09:51:37;;;;;;;10.63;5.85;;;;;;;;;;5036807;28;20126;-67
2021/11/23 09:54:05;;;;;;;9.40;6.43;;;;;;;;;;5036927;28;20100;-67
2021/11/23 09:56:33;;;;;;;10.80;6.85;;;;;;;;;;5040033;28;20057;-67
2021/11/23 09:59:01;;;;;;;9.88;6.50;;;;;;;;;;5036138;28;20049;-67
2021/11/23 10:01:29;;;;;;;9.80;6.10;;;;;;;;;;5036576;28;20044;-67
2021/11/23 10:03:58;;;;;;;11.25;6.28;;;;;;;;;;5034665;28;20139;-67
2021/11/23 10:06:27;;;;;;;9.25;5.85;;;;;;;;;;5038876;28;20050;-67
2021/11/23 10:08:56;;;;;;;10.00;5.90;;;;;;;;;;5035014;28;20466;-67
2021/11/23 10:11:25;;;;;;;12.63;6.18;;;;;;;;;;5034408;28;20048;-67
2021/11/23 10:13:54;;;;;;;10.48;6.20;;;;;;;;;;5038346;28;20090;-68
2021/11/23 10:16:21;;;;;;;12.07;6.38;;;;;;;;;;5040733;28;20045;-67
2021/11/23 10:18:49;;;;;;;9.65;6.05;;;;;;;;;;5036764;28;20056;-67
2021/11/23 10:21:19;;;;;;;11.85;5.43;;;;;;;;;;5036815;28;20052;-67
2021/11/23 10:23:47;;;;;;;9.25;5.82;;;;;;;;;;5039251;28;20678;-67
2021/11/23 10:26:18;;;;;;;13.05;6.10;;;;;;;;;;5036657;28;20064;-68
2021/11/23 10:28:49;;;;;;;10.82;6.13;;;;;;;;;;5033849;28;20192;-67
2021/11/23 10:31:16;;;;;;;13.43;7.07;;;;;;;;;;5036001;28;20680;-67
2021/11/23 10:33:43;;;;;;;9.85;6.13;;;;;;;;;;5036734;28;20134;-67
2021/11/23 10:36:11;;;;;;;11.20;6.65;;;;;;;;;;5030115;28;20057;-68
2021/11/23 10:38:40;;;;;;;9.85;5.85;;;;;;;;;;5036271;28;20041;-67
2021/11/23 10:41:08;;;;;;;10.23;5.90;;;;;;;;;;5036416;28;20496;-68
2021/11/23 10:43:39;;;;;;;10.98;7.10;;;;;;;;;;5037315;28;20053;-67
2021/11/23 10:46:14;;;;;;;24.33;7.40;;;;;;;;;;5038002;28;20629;-68
2021/11/23 10:48:41;;;;;;;8.13;5.63;;;;;;;;;;5034819;28;20053;-68
2021/11/23 10:51:09;;;;;;;11.32;6.10;;;;;;;;;;5034282;28;20159;-68
2021/11/23 10:53:37;;;;;;;11.52;7.05;;;;;;;;;;5034219;28;20048;-68
2021/11/23 10:56:08;;;;;;;13.70;6.50;;;;;;;;;;5033916;28;21356;-68
2021/11/23 10:58:35;;;;;;;10.23;6.75;;;;;;;;;;5036991;28;20053;-67
2021/11/23 11:01:04;;;;;;;9.88;6.53;;;;;;;;;;5036877;28;20468;-68
2021/11/23 11:03:32;;;;;;;10.70;6.45;;;;;;;;;;5037611;28;20057;-68
2021/11/23 11:06:00;;;;;;;11.38;6.47;;;;;;;;;;5037343;28;20330;-67
2021/11/23 11:08:28;;;;;;;12.57;6.78;;;;;;;;;;5033799;28;20049;-68
2021/11/23 11:10:55;;;;;;;12.40;7.25;;;;;;;;;;5033007;28;20491;-68
2021/11/23 11:13:24;;;;;;;11.82;7.13;;;;;;;;;;5036694;28;20044;-68
2021/11/23 11:15:53;;;;;;;12.23;7.20;;;;;;;;;;5039251;28;20369;-68
2021/11/23 11:18:21;;;;;;;13.63;7.45;;;;;;;;;;5034491;28;20106;-68
2021/11/23 11:20:50;;;;;;;12.10;6.78;;;;;;;;;;5034052;28;20087;-68
2021/11/23 11:23:26;;;;;;;12.25;7.63;;;;;;;;;;5037712;28;20139;-67
2021/11/23 11:25:58;;;;;;;11.90;6.50;;;;;;;;;;5034723;28;20067;-68
2021/11/23 11:28:46;;;;;;;9.35;6.50;;;;;;;;;;5033939;28;20171;-68
2021/11/23 11:31:38;;;;;;;11.88;7.25;;;;;;;;;;5032722;28;20421;-68
2021/11/23 11:34:21;;;;;;;12.52;7.63;;;;;;;;;;5036264;28;20053;-68
2021/11/23 11:36:49;;;;;;;10.35;6.35;;;;;;;;;;5034523;28;20072;-68
2021/11/23 11:39:53;;;;;;;12.27;6.57;;;;;;;;;;5029041;28;20056;-68
2021/11/23 11:42:55;;;;;;;12.27;6.90;;;;;;;;;;5032891;28;20061;-68
2021/11/23 11:45:38;;;;;;;10.27;6.10;;;;;;;;;;5038743;28;20649;-68
2021/11/23 11:48:26;;;;;;;11.10;6.78;;;;;;;;;;5031359;28;20077;-67
2021/11/23 11:51:00;;;;;;;8.98;6.03;;;;;;;;;;5031380;28;20037;-68
2021/11/23 11:53:31;;;;;;;8.98;5.95;;;;;;;;;;5034275;28;20139;-68
2021/11/23 11:55:57;;;;;;;9.00;6.20;;;;;;;;;;5033632;28;20565;-68
2021/11/23 11:58:46;;;;;;;9.73;6.00;;;;;;;;;;5034405;28;20147;-68
2021/11/23 12:01:21;;;;;;;7.13;5.20;;;;;;;;;;5033084;28;20233;-68
2021/11/23 12:04:01;;;;;;;7.30;5.00;;;;;;;;;;5036465;28;20131;-68
2021/11/23 12:07:03;;;;;;;11.20;6.00;;;;;;;;;;5032532;28;20814;-68
2021/11/23 12:09:32;;;;;;;11.55;6.45;;;;;;;;;;5035636;28;20699;-68
2021/11/23 12:12:03;;;;;;;9.68;5.88;;;;;;;;;;5032952;28;20144;-68
2021/11/23 12:14:37;;;;;;;8.80;5.75;;;;;;;;;;5037072;28;20068;-68
2021/11/23 12:17:11;;;;;;;12.10;7.00;;;;;;;;;;5036531;28;20753;-68
2021/11/23 12:19:43;;;;;;;9.30;6.60;;;;;;;;;;5032871;28;20053;-68
2021/11/23 12:22:20;;;;;;;9.90;6.45;;;;;;;;;;5037886;28;20053;-68
2021/11/23 12:24:47;;;;;;;11.73;7.05;;;;;;;;;;5035049;28;20122;-69
2021/11/23 12:27:16;;;;;;;10.27;6.50;;;;;;;;;;5039198;28;20111;-68
2021/11/23 12:29:44;;;;;;;13.45;7.18;;;;;;;;;;5033881;28;20045;-68
2021/11/23 12:32:12;;;;;;;10.10;6.78;;;;;;;;;;5038423;28;20072;-68
2021/11/23 12:34:49;;;;;;;10.98;6.78;;;;;;;;;;5036278;28;20073;-68
2021/11/23 12:37:15;;;;;;;10.43;6.00;;;;;;;;;;5036288;28;20095;-68
2021/11/23 12:39:42;;;;;;;10.32;6.93;;;;;;;;;;5037516;28;20104;-68
2021/11/23 12:42:10;;;;;;;11.63;6.55;;;;;;;;;;5034950;28;20088;-68
2021/11/23 12:44:38;;;;;;;11.07;7.07;;;;;;;;;;5038295;28;20136;-67
2021/11/23 12:47:07;;;;;;;18.10;8.82;;;;;;;;;;5041391;28;20088;-68
2021/11/23 12:49:36;;;;;;;11.68;7.97;;;;;;;;;;5036247;28;20676;-68
2021/11/23 12:52:04;;;;;;;9.50;6.20;;;;;;;;;;5038195;28;20037;-68
2021/11/23 12:54:33;;;;;;;9.55;6.97;;;;;;;;;;5040738;28;20480;-68
2021/11/23 12:57:04;;;;;;;9.27;6.78;;;;;;;;;;5037289;28;20132;-67
2021/11/23 12:59:36;;;;;;;11.35;7.57;;;;;;;;;;5035944;28;20057;-68
2021/11/23 13:02:32;;;;;;;11.05;7.75;;;;;;;;;;5037172;28;20059;-67
2021/11/23 13:05:02;;;;;;;11.13;7.38;;;;;;;;;;5036974;28;20072;-67
2021/11/23 13:07:29;;;;;;;12.45;7.05;;;;;;;;;;5037982;28;20056;-67
2021/11/23 13:10:00;;;;;;;11.40;7.78;;;;;;;;;;5036216;28;20049;-68
2021/11/23 13:12:30;;;;;;;12.85;7.40;;;;;;;;;;5039742;28;20140;-68
2021/11/23 13:15:00;;;;;;;10.65;7.43;;;;;;;;;;5037568;28;20072;-68
2021/11/23 13:17:54;;;;;;;10.63;7.30;;;;;;;;;;5039765;28;20135;-68
2021/11/23 13:20:35;;;;;;;10.40;7.03;;;;;;;;;;5034011;28;20055;-68
2021/11/23 13:23:19;;;;;;;12.23;7.57;;;;;;;;;;5040160;28;20126;-68
2021/11/23 13:25:46;;;;;;;10.57;7.90;;;;;;;;;;5038788;28;20060;-68
2021/11/23 13:28:15;;;;;;;14.48;7.28;;;;;;;;;;5038483;28;20072;-68
2021/11/23 13:30:47;;;;;;;9.35;6.60;;;;;;;;;;5036951;28;20076;-68
2021/11/23 13:33:17;;;;;;;9.90;5.95;;;;;;;;;;5036245;28;20575;-70
2021/11/23 13:36:10;;;;;;;9.80;6.57;;;;;;;;;;5037306;28;20045;-68
2021/11/23 13:38:49;;;;;;;11.05;6.55;;;;;;;;;;5038523;28;20045;-68
2021/11/23 13:41:24;;;;;;;8.90;6.68;;;;;;;;;;5037431;28;20071;-68
2021/11/23 13:43:54;;;;;;;8.48;6.07;;;;;;;;;;5039698;28;20508;-68
2021/11/23 13:46:22;;;;;;;11.57;6.35;;;;;;;;;;5043164;28;20053;-68
2021/11/23 13:48:59;;;;;;;10.32;7.15;;;;;;;;;;5036545;28;20046;-68
2021/11/23 13:51:28;;;;;;;9.48;6.45;;;;;;;;;;5035971;28;20057;-68
2021/11/23 13:54:03;;;;;;;10.93;6.90;;;;;;;;;;5040635;28;20077;-68
2021/11/23 13:56:31;;;;;;;12.20;6.33;;;;;;;;;;5037374;28;20073;-68
2021/11/23 13:59:00;;;;;;;10.13;5.97;;;;;;;;;;5035284;28;20327;-68
2021/11/23 14:01:35;;;;;;;7.18;5.47;;;;;;;;;;5035948;28;21361;-68
2021/11/23 14:04:12;;;;;;;11.95;6.80;;;;;;;;;;5039578;28;20154;-68
2021/11/23 14:07:09;;;;;;;12.73;6.53;;;;;;;;;;5040121;28;20111;-68
2021/11/23 14:09:45;;;;;;;;;;;;;;;;;;5037969;28;20521;-68
2021/11/23 14:12:12;;;;;;;9.68;5.82;;;;;;;;;;5038806;28;19971;-68
2021/11/23 14:15:00;;;;;;;10.98;6.63;;;;;;;;;;5040348;28;20044;-68
2021/11/23 14:18:11;;;;;;;9.77;5.95;;;;;;;;;;5040170;28;20096;-68
2021/11/23 14:20:51;;;;;;;9.80;6.15;;;;;;;;;;5038444;28;20654;-68
2021/11/23 14:23:23;;;;;;;7.40;5.47;;;;;;;;;;5040610;28;20041;-68
2021/11/23 14:26:03;;;;;;;8.35;6.00;;;;;;;;;;5038338;28;20132;-68
2021/11/23 14:28:30;;;;;;;9.20;6.25;;;;;;;;;;5034987;28;20141;-68
2021/11/23 14:30:57;;;;;;;10.38;7.38;;;;;;;;;;5036781;28;20545;-68
2021/11/23 14:33:25;;;;;;;9.30;5.93;;;;;;;;;;5038033;28;20727;-68
2021/11/23 14:35:52;;;;;;;8.27;5.70;;;;;;;;;;5038277;28;20072;-68
2021/11/23 14:38:20;;;;;;;9.82;6.22;;;;;;;;;;5037198;28;20076;-68
2021/11/23 14:40:47;;;;;;;9.88;5.90;;;;;;;;;;5036427;28;20137;-67
2021/11/23 14:43:14;;;;;;;10.38;6.35;;;;;;;;;;5038327;28;20135;-68
2021/11/23 14:45:41;;;;;;;8.93;5.35;;;;;;;;;;5035796;28;20040;-68
2021/11/23 14:48:08;;;;;;;11.75;6.45;;;;;;;;;;5032015;28;20135;-68